createdAt,value
2019-01-11T00:01:24.447Z,5.60
2019-01-11T00:06:36.319Z,4.83
2019-01-11T00:11:48.448Z,4.67
2019-01-11T00:17:00.306Z,4.27
2019-01-11T00:22:10.372Z,4.87
2019-01-11T00:27:29.273Z,6.30
2019-01-11T00:32:40.720Z,5.23
2019-01-11T00:37:52.274Z,4.80
2019-01-11T00:43:04.272Z,4.60
2019-01-11T00:48:16.031Z,5.17
2019-01-11T00:53:27.944Z,3.97
2019-01-11T00:58:39.841Z,5.40
2019-01-11T01:03:40.651Z,5.03
2019-01-11T01:08:40.459Z,4.80
2019-01-11T01:13:52.387Z,4.97
2019-01-11T01:18:52.031Z,5.70
2019-01-11T01:23:51.712Z,4.93
2019-01-11T01:29:03.072Z,4.03
2019-01-11T01:34:14.733Z,3.60
2019-01-11T01:39:26.887Z,4.50
2019-01-11T01:44:38.453Z,4.20
2019-01-11T01:49:50.477Z,4.50
2019-01-11T01:54:51.007Z,5.17
2019-01-11T02:00:28.245Z,4.20
2019-01-11T02:05:47.131Z,3.70
2019-01-11T02:11:18.224Z,3.50
2019-01-11T02:16:30.387Z,4.80
2019-01-11T02:21:41.770Z,3.33
2019-01-11T02:26:53.463Z,4.20
2019-01-11T02:32:05.313Z,2.70
2019-01-11T02:37:17.490Z,3.90
2019-01-11T02:42:28.915Z,3.27
2019-01-11T02:47:41.892Z,3.40
2019-01-11T02:52:54.143Z,4.30
2019-01-11T02:58:05.892Z,3.70
2019-01-11T03:03:17.768Z,3.00
2019-01-11T03:08:29.283Z,3.47
2019-01-11T03:13:41.109Z,4.20
2019-01-11T03:18:53.308Z,3.93
2019-01-11T03:24:04.956Z,3.67
2019-01-11T03:29:16.499Z,4.73
2019-01-11T03:34:28.200Z,3.40
2019-01-11T03:39:40.445Z,3.80
2019-01-11T03:44:52.571Z,4.27
2019-01-11T03:50:04.100Z,4.50
2019-01-11T03:55:16.065Z,4.83
2019-01-11T04:00:28.155Z,4.17
2019-01-11T04:05:40.124Z,4.77
2019-01-11T04:10:52.384Z,3.80
2019-01-11T04:16:04.557Z,6.03
2019-01-11T04:21:16.160Z,6.20
2019-01-11T04:26:27.372Z,5.13
2019-01-11T04:31:39.476Z,4.47
2019-01-11T04:36:51.551Z,5.70
2019-01-11T04:42:03.581Z,3.70
2019-01-11T04:47:15.748Z,5.83
2019-01-11T04:52:27.801Z,5.10
2019-01-11T04:57:39.589Z,5.80
2019-01-11T05:02:51.467Z,6.30
2019-01-11T05:08:03.372Z,6.10
2019-01-11T05:13:34.059Z,6.17
2019-01-11T05:18:45.655Z,6.00
2019-01-11T05:23:57.536Z,7.53
2019-01-11T05:29:09.677Z,7.80
2019-01-11T05:34:21.960Z,8.57
2019-01-11T05:39:33.557Z,7.07
2019-01-11T05:44:45.756Z,7.47
2019-01-11T05:49:57.772Z,8.37
2019-01-11T05:55:11.295Z,8.67
2019-01-11T06:00:22.735Z,8.60
2019-01-11T06:05:34.718Z,9.20
2019-01-11T06:10:46.716Z,9.70
2019-01-11T06:15:58.790Z,8.43
2019-01-11T06:21:10.659Z,9.57
2019-01-11T06:26:22.662Z,8.60
2019-01-11T06:31:34.611Z,13.13
2019-01-11T06:36:46.336Z,8.90
2019-01-11T06:47:28.384Z,11.13
2019-01-11T06:52:40.188Z,10.10
2019-01-11T06:57:52.062Z,8.90
2019-01-11T07:03:05.075Z,8.87
2019-01-11T07:08:17.080Z,8.50
2019-01-11T07:13:28.600Z,8.53
2019-01-11T07:18:40.059Z,7.67
2019-01-11T07:23:52.076Z,10.00
2019-01-11T07:29:04.425Z,7.70
2019-01-11T07:34:16.243Z,10.30
2019-01-11T07:39:29.978Z,9.60
2019-01-11T07:44:41.479Z,9.60
2019-01-11T07:49:53.279Z,9.40
2019-01-11T07:55:05.183Z,8.87
2019-01-11T08:00:16.788Z,6.97
2019-01-11T08:05:28.544Z,9.57
2019-01-11T08:10:40.036Z,9.90
2019-01-11T08:15:51.888Z,8.00
2019-01-11T08:21:03.368Z,8.13
2019-01-11T08:26:14.737Z,8.40
2019-01-11T08:31:26.520Z,8.37
2019-01-11T08:36:37.847Z,8.00
2019-01-11T08:41:49.257Z,5.60
2019-01-11T08:47:00.739Z,8.37
2019-01-11T08:52:16.686Z,5.13
2019-01-11T08:57:28.525Z,7.23
2019-01-11T09:02:40.451Z,6.80
2019-01-11T09:07:52.348Z,7.70
2019-01-11T09:13:04.188Z,8.10
2019-01-11T09:18:30.989Z,6.47
2019-01-11T09:23:30.682Z,9.17
2019-01-11T09:28:49.608Z,6.73
2019-01-11T09:34:01.471Z,7.40
2019-01-11T09:39:13.399Z,7.13
2019-01-11T09:44:25.243Z,7.63
2019-01-11T09:49:37.344Z,8.10
2019-01-11T09:54:47.432Z,7.97
2019-01-11T09:59:59.602Z,6.73
2019-01-11T10:05:11.471Z,5.93
2019-01-11T10:10:23.281Z,6.80
2019-01-11T10:15:35.348Z,6.70
2019-01-11T10:20:49.682Z,6.43
2019-01-11T10:26:01.597Z,5.90
2019-01-11T10:31:01.411Z,4.33
2019-01-11T10:36:20.527Z,4.80
2019-01-11T10:41:32.092Z,2.63
2019-01-11T10:46:49.002Z,3.40
2019-01-11T10:51:57.891Z,3.00
2019-01-11T10:57:09.187Z,3.80
2019-01-11T11:02:21.206Z,2.37
2019-01-11T11:07:32.978Z,1.50
2019-01-11T11:12:44.941Z,2.83
2019-01-11T11:17:56.509Z,2.00
2019-01-11T11:23:07.796Z,1.67
2019-01-11T11:28:20.120Z,1.73
2019-01-11T11:33:32.883Z,1.87
2019-01-11T11:38:44.848Z,2.07
2019-01-11T11:43:56.094Z,1.17
2019-01-11T11:49:08.247Z,0.80
2019-01-11T11:54:20.216Z,0.93
2019-01-11T11:59:31.895Z,0.90
2019-01-11T12:04:43.720Z,1.37
2019-01-11T12:09:55.519Z,1.30
2019-01-11T12:15:07.096Z,1.50
2019-01-11T12:20:18.896Z,1.20
2019-01-11T12:25:31.707Z,1.17
2019-01-11T12:30:43.473Z,0.90
2019-01-11T12:35:55.800Z,1.10
2019-01-11T12:41:07.384Z,0.67
2019-01-11T12:46:19.852Z,0.93
2019-01-11T12:51:32.089Z,0.77
2019-01-11T12:56:44.181Z,1.03
2019-01-11T13:01:55.986Z,0.80
2019-01-11T13:07:07.441Z,0.90
2019-01-11T13:39:56.907Z,0.67
2019-01-11T14:29:10.091Z,1.40
2019-01-11T14:50:37.926Z,2.73
2019-01-11T15:12:20.845Z,2.67
2019-01-11T15:17:33.227Z,2.73
2019-01-11T15:22:47.657Z,3.33
2019-01-11T15:28:01.718Z,5.53
2019-01-11T15:33:13.505Z,2.73
2019-01-11T15:38:25.082Z,3.20
2019-01-11T15:43:37.216Z,4.67
2019-01-11T15:48:49.009Z,4.53
2019-01-11T15:54:00.243Z,3.70
2019-01-11T15:59:19.356Z,6.10
2019-01-11T16:32:18.431Z,3.30
2019-01-11T16:37:29.689Z,4.90
2019-01-11T16:42:29.463Z,5.23
2019-01-11T16:47:48.484Z,3.30
2019-01-11T16:53:00.184Z,5.53
2019-01-11T16:58:11.879Z,4.93
2019-01-11T17:03:11.930Z,5.10
2019-01-11T17:08:30.826Z,6.47
2019-01-11T17:13:42.660Z,6.60
2019-01-11T17:18:53.994Z,6.30
2019-01-11T17:24:05.352Z,4.67
2019-01-11T17:29:17.438Z,8.20
2019-01-11T17:34:28.732Z,6.53
2019-01-11T17:39:40.208Z,6.73
2019-01-11T17:44:39.972Z,10.07
2019-01-11T17:50:01.175Z,4.30
2019-01-11T18:06:19.006Z,6.30
2019-01-11T18:28:29.252Z,8.03
2019-01-11T18:33:40.945Z,3.63
2019-01-11T18:44:22.216Z,4.47
2019-01-11T18:55:01.035Z,7.80
2019-01-11T19:00:13.168Z,7.23
2019-01-11T19:05:25.168Z,9.30
2019-01-11T19:10:37.050Z,7.50
2019-01-11T19:15:48.659Z,11.17
2019-01-11T19:21:00.490Z,6.50
2019-01-11T19:26:12.225Z,10.13
2019-01-11T20:09:30.738Z,7.10
2019-01-11T20:14:45.461Z,8.70
2019-01-11T20:19:57.236Z,8.47
2019-01-11T20:25:09.373Z,7.20
2019-01-11T20:52:30.195Z,9.60
2019-01-11T20:57:42.395Z,9.00
2019-01-11T21:02:54.487Z,5.87
2019-01-11T21:08:06.606Z,8.17
2019-01-11T21:13:18.479Z,7.40
2019-01-11T21:18:18.491Z,9.53
2019-01-11T21:23:37.435Z,9.60
2019-01-11T21:28:49.176Z,6.50
2019-01-11T21:34:01.035Z,8.33
2019-01-11T21:39:13.186Z,8.33
2019-01-11T21:44:13.196Z,6.43
2019-01-11T21:49:32.381Z,6.90
2019-01-11T21:54:44.407Z,8.20
2019-01-11T21:59:56.600Z,4.67
2019-01-11T22:05:08.136Z,4.80
2019-01-11T22:10:20.275Z,6.40
2019-01-11T22:15:32.439Z,3.60
2019-01-11T22:20:43.830Z,2.77
2019-01-11T22:25:55.532Z,4.80
2019-01-11T22:31:06.906Z,7.73
2019-01-11T22:36:19.228Z,8.60
2019-01-11T22:41:30.597Z,8.87
2019-01-11T22:46:42.487Z,6.43
2019-01-11T22:51:54.524Z,6.67
2019-01-11T22:57:06.295Z,4.70
2019-01-11T23:02:18.059Z,6.50
2019-01-11T23:07:29.388Z,6.07
2019-01-11T23:12:41.194Z,4.73
2019-01-11T23:17:57.478Z,6.10
2019-01-11T23:23:16.460Z,6.73
2019-01-11T23:28:28.015Z,5.93
2019-01-11T23:33:39.756Z,6.00
2019-01-11T23:38:51.728Z,3.37
2019-01-11T23:44:03.399Z,7.13
2019-01-11T23:49:15.295Z,5.90
2019-01-11T23:54:26.930Z,5.13
2019-01-11T23:59:36.926Z,7.13
